AAL3599 KMIA-SVMI
Flight info
| Callsign | AAL3599 |
|---|---|
| Flight time | N/A |
| Altitude | 37000 |
| Route | GWAVA2 URSUS UP406 BILSI UL795 GELOG/N0456F390 DCT SIMGA DCT TARBA UA511 PENKO UA315 PJG UL339 VUNUM DCT ISISU ALDAK1 |
| Aircraft | B738/M-SDE2E3FGHIRWXY/LB1 |
Departure
| Time | 2026-05-04 00:17 |
|---|---|
| Airport | Miami International Airport (KMIA) |
Arrival
| Time | N/A |
|---|---|
| Airport | Maiquetía Simón Bolívar International Airport (SVMI) |
| Time | Latitude | Longitude | Altitude | Speed | Heading |
|---|---|---|---|---|---|
| 2026-05-03 23:35 | 25.79693 | -80.28602 | 19 ft | 0 kts | 50° |
| 2026-05-03 23:59 | 25.79686 | -80.28610 | 18 ft | 4 kts | 37° |
| 2026-05-03 23:59 | 25.79668 | -80.28616 | 20 ft | 4 kts | 319° |
| 2026-05-03 23:59 | 25.79655 | -80.28593 | 20 ft | 4 kts | 281° |
| 2026-05-03 23:59 | 25.79653 | -80.28579 | 18 ft | 1 kts | 266° |
| 2026-05-04 00:09 | 25.79653 | -80.28582 | 18 ft | 2 kts | 267° |
| 2026-05-04 00:10 | 25.79653 | -80.28612 | 18 ft | 6 kts | 269° |
| 2026-05-04 00:10 | 25.79648 | -80.28680 | 20 ft | 11 kts | 264° |
| 2026-05-04 00:10 | 25.79645 | -80.28773 | 19 ft | 12 kts | 285° |
| 2026-05-04 00:10 | 25.79714 | -80.28814 | 19 ft | 12 kts | 355° |
| 2026-05-04 00:11 | 25.79797 | -80.28820 | 21 ft | 12 kts | 356° |
| 2026-05-04 00:11 | 25.79876 | -80.28825 | 20 ft | 11 kts | 356° |
| 2026-05-04 00:11 | 25.79955 | -80.28829 | 21 ft | 11 kts | 360° |
| 2026-05-04 00:11 | 25.80014 | -80.28866 | 20 ft | 11 kts | 283° |
| 2026-05-04 00:12 | 25.80011 | -80.28956 | 21 ft | 13 kts | 266° |
| 2026-05-04 00:12 | 25.80005 | -80.29050 | 21 ft | 12 kts | 267° |
| 2026-05-04 00:12 | 25.80001 | -80.29144 | 21 ft | 12 kts | 267° |
| 2026-05-04 00:12 | 25.79997 | -80.29241 | 20 ft | 14 kts | 267° |
| 2026-05-04 00:13 | 25.79992 | -80.29360 | 18 ft | 18 kts | 267° |
| 2026-05-04 00:13 | 25.79986 | -80.29510 | 12 ft | 20 kts | 268° |
| 2026-05-04 00:13 | 25.79981 | -80.29666 | 13 ft | 20 kts | 268° |
| 2026-05-04 00:13 | 25.79975 | -80.29817 | 12 ft | 19 kts | 268° |
| 2026-05-04 00:14 | 25.79975 | -80.29954 | 10 ft | 8 kts | 282° |
| 2026-05-04 00:14 | 25.79975 | -80.29956 | 10 ft | 0 kts | 283° |
| 2026-05-04 00:15 | 25.79976 | -80.29960 | 12 ft | 2 kts | 283° |
| 2026-05-04 00:15 | 25.79984 | -80.29996 | 12 ft | 8 kts | 283° |
| 2026-05-04 00:15 | 25.80003 | -80.30073 | 12 ft | 12 kts | 287° |
| 2026-05-04 00:16 | 25.80057 | -80.30123 | 15 ft | 11 kts | 13° |
| 2026-05-04 00:16 | 25.80085 | -80.30045 | 12 ft | 13 kts | 87° |
| 2026-05-04 00:16 | 25.80094 | -80.29855 | 12 ft | 36 kts | 87° |
| 2026-05-04 00:16 | 25.80108 | -80.29432 | 15 ft | 84 kts | 88° |
| 2026-05-04 00:17 | 25.80137 | -80.28584 | 19 ft | 137 kts | 88° |
| 2026-05-04 00:17 | 25.80183 | -80.27394 | 217 ft | 162 kts | 87° |
| 2026-05-04 00:17 | 25.80223 | -80.26111 | 736 ft | 170 kts | 89° |
| 2026-05-04 00:17 | 25.80207 | -80.24811 | 1407 ft | 168 kts | 101° |
| 2026-05-04 00:18 | 25.79707 | -80.23609 | 1861 ft | 181 kts | 128° |
| 2026-05-04 00:18 | 25.78721 | -80.22696 | 2456 ft | 185 kts | 147° |
| 2026-05-04 00:18 | 25.77668 | -80.21974 | 3291 ft | 175 kts | 148° |
| 2026-05-04 00:18 | 25.76602 | -80.21234 | 3724 ft | 191 kts | 146° |
| 2026-05-04 00:19 | 25.75453 | -80.20373 | 4143 ft | 203 kts | 144° |
| 2026-05-04 00:19 | 25.74294 | -80.19506 | 4863 ft | 200 kts | 153° |
| 2026-05-04 00:19 | 25.72942 | -80.19042 | 5391 ft | 210 kts | 172° |
| 2026-05-04 00:19 | 25.71450 | -80.18850 | 5755 ft | 221 kts | 178° |
| 2026-05-04 00:20 | 25.69952 | -80.18874 | 6123 ft | 213 kts | 187° |
| 2026-05-04 00:20 | 25.68486 | -80.19096 | 6165 ft | 215 kts | 192° |
| 2026-05-04 00:20 | 25.66995 | -80.19414 | 6526 ft | 217 kts | 193° |
| 2026-05-04 00:20 | 25.65545 | -80.19621 | 7276 ft | 207 kts | 185° |
| 2026-05-04 00:21 | 25.64082 | -80.19648 | 7601 ft | 220 kts | 182° |
| 2026-05-04 00:21 | 25.62494 | -80.19674 | 7820 ft | 234 kts | 183° |
| 2026-05-04 00:21 | 25.60833 | -80.19267 | 7939 ft | 260 kts | 154° |
| 2026-05-04 00:21 | 25.59211 | -80.18178 | 8125 ft | 284 kts | 150° |
| 2026-05-04 00:22 | 25.57533 | -80.17012 | 8624 ft | 293 kts | 150° |
| 2026-05-04 00:22 | 25.55788 | -80.15810 | 9286 ft | 298 kts | 150° |
| 2026-05-04 00:22 | 25.54021 | -80.14610 | 9997 ft | 300 kts | 152° |
| 2026-05-04 00:22 | 25.52210 | -80.13382 | 10440 ft | 317 kts | 152° |
| 2026-05-04 00:23 | 25.50244 | -80.12087 | 10623 ft | 341 kts | 152° |
| 2026-05-04 00:23 | 25.48163 | -80.10718 | 10975 ft | 354 kts | 152° |
| 2026-05-04 00:23 | 25.46033 | -80.09306 | 11583 ft | 359 kts | 152° |
| 2026-05-04 00:23 | 25.43881 | -80.07877 | 12282 ft | 361 kts | 153° |
| 2026-05-04 00:24 | 25.41722 | -80.06448 | 12983 ft | 364 kts | 153° |
| 2026-05-04 00:24 | 25.39533 | -80.05004 | 13626 ft | 368 kts | 153° |
| 2026-05-04 00:24 | 25.37347 | -80.03566 | 14264 ft | 372 kts | 153° |
| 2026-05-04 00:24 | 25.35112 | -80.02096 | 14938 ft | 376 kts | 153° |
| 2026-05-04 00:25 | 25.32860 | -80.00615 | 15598 ft | 379 kts | 153° |
| 2026-05-04 00:25 | 25.30578 | -79.99116 | 16253 ft | 383 kts | 154° |
| 2026-05-04 00:25 | 25.28285 | -79.97611 | 16891 ft | 386 kts | 154° |
| 2026-05-04 00:25 | 25.25957 | -79.96075 | 17488 ft | 390 kts | 153° |
| 2026-05-04 00:26 | 25.23648 | -79.94475 | 18082 ft | 395 kts | 152° |
| 2026-05-04 00:26 | 25.21322 | -79.92818 | 18646 ft | 399 kts | 152° |
| 2026-05-04 00:26 | 25.18987 | -79.91143 | 19210 ft | 402 kts | 152° |
| 2026-05-04 00:26 | 25.16665 | -79.89480 | 19740 ft | 406 kts | 152° |
| 2026-05-04 00:27 | 25.15124 | -79.88379 | 20085 ft | 408 kts | 152° |
| 2026-05-04 00:27 | 25.14536 | -79.87960 | 20213 ft | 409 kts | 152° |
| 2026-05-04 00:27 | 25.12141 | -79.86256 | 20723 ft | 412 kts | 152° |
| 2026-05-04 00:27 | 25.10611 | -79.85172 | 21044 ft | 414 kts | 152° |
| 2026-05-04 00:28 | 25.09470 | -79.84363 | 21278 ft | 416 kts | 153° |
| 2026-05-04 00:28 | 25.07394 | -79.82893 | 21682 ft | 419 kts | 153° |
| 2026-05-04 00:29 | 25.04951 | -79.81164 | 22143 ft | 422 kts | 153° |
| 2026-05-04 00:29 | 25.03264 | -79.79971 | 22444 ft | 424 kts | 153° |
| 2026-05-04 00:29 | 25.01651 | -79.78830 | 22729 ft | 426 kts | 153° |
| 2026-05-04 00:29 | 24.99145 | -79.77059 | 23157 ft | 429 kts | 153° |
| 2026-05-04 00:30 | 24.96628 | -79.75280 | 23572 ft | 432 kts | 153° |
| 2026-05-04 00:30 | 24.94091 | -79.73488 | 23973 ft | 435 kts | 153° |
| 2026-05-04 00:30 | 24.91543 | -79.71689 | 24358 ft | 438 kts | 153° |
| 2026-05-04 00:30 | 24.89009 | -79.69903 | 24746 ft | 440 kts | 153° |
| 2026-05-04 00:31 | 24.86418 | -79.68077 | 25130 ft | 442 kts | 153° |
| 2026-05-04 00:31 | 24.83814 | -79.66242 | 25529 ft | 444 kts | 153° |
| 2026-05-04 00:31 | 24.81212 | -79.64410 | 25921 ft | 446 kts | 153° |
| 2026-05-04 00:31 | 24.78588 | -79.62563 | 26277 ft | 448 kts | 153° |
| 2026-05-04 00:32 | 24.75952 | -79.60708 | 26626 ft | 450 kts | 154° |
| 2026-05-04 00:32 | 24.73347 | -79.58875 | 26975 ft | 452 kts | 153° |
| 2026-05-04 00:32 | 24.70698 | -79.57012 | 27300 ft | 454 kts | 154° |
| 2026-05-04 00:32 | 24.68035 | -79.55140 | 27622 ft | 456 kts | 154° |
| 2026-05-04 00:33 | 24.65358 | -79.53259 | 27976 ft | 457 kts | 154° |
| 2026-05-04 00:33 | 24.59986 | -79.49486 | 28614 ft | 459 kts | 154° |
| 2026-05-04 00:33 | 24.57293 | -79.47598 | 28881 ft | 462 kts | 154° |
| 2026-05-04 00:34 | 24.54581 | -79.45697 | 29161 ft | 463 kts | 154° |
| 2026-05-04 00:34 | 24.51862 | -79.43790 | 29464 ft | 465 kts | 154° |
| 2026-05-04 00:34 | 24.49123 | -79.41872 | 29747 ft | 466 kts | 154° |
| 2026-05-04 00:34 | 24.46388 | -79.39957 | 30028 ft | 467 kts | 154° |
| 2026-05-04 00:35 | 24.43686 | -79.38066 | 30273 ft | 469 kts | 154° |
| 2026-05-04 00:35 | 24.40932 | -79.36139 | 30546 ft | 470 kts | 154° |
| 2026-05-04 00:35 | 24.38172 | -79.34208 | 30865 ft | 469 kts | 154° |
| 2026-05-04 00:35 | 24.35430 | -79.32291 | 31199 ft | 469 kts | 154° |
| 2026-05-04 00:36 | 24.32676 | -79.30367 | 31516 ft | 469 kts | 154° |
| 2026-05-04 00:36 | 24.29922 | -79.28443 | 31810 ft | 469 kts | 154° |
| 2026-05-04 00:36 | 24.27177 | -79.26496 | 32081 ft | 470 kts | 154° |
| 2026-05-04 00:36 | 24.24477 | -79.24555 | 32387 ft | 470 kts | 153° |
| 2026-05-04 00:37 | 24.21743 | -79.22583 | 32701 ft | 470 kts | 153° |
| 2026-05-04 00:37 | 24.19021 | -79.20620 | 33009 ft | 470 kts | 153° |
| 2026-05-04 00:37 | 24.16284 | -79.18653 | 33283 ft | 470 kts | 153° |
| 2026-05-04 00:37 | 24.13553 | -79.16695 | 33559 ft | 470 kts | 153° |
| 2026-05-04 00:38 | 24.10817 | -79.14736 | 33839 ft | 470 kts | 153° |
| 2026-05-04 00:38 | 24.08077 | -79.12776 | 34062 ft | 472 kts | 153° |
| 2026-05-04 00:38 | 24.05326 | -79.10807 | 34290 ft | 472 kts | 153° |
| 2026-05-04 00:38 | 24.02609 | -79.08865 | 34606 ft | 471 kts | 153° |
| 2026-05-04 00:39 | 23.99771 | -79.07063 | 34882 ft | 461 kts | 165° |
| 2026-05-04 00:39 | 23.96766 | -79.06193 | 35048 ft | 449 kts | 176° |
| 2026-05-04 00:39 | 23.93663 | -79.05617 | 35020 ft | 454 kts | 177° |
| 2026-05-04 00:40 | 23.87427 | -79.04472 | 35017 ft | 455 kts | 176° |
| 2026-05-04 00:40 | 23.81211 | -79.03278 | 35027 ft | 452 kts | 176° |
| 2026-05-04 00:41 | 23.75027 | -79.02059 | 35026 ft | 451 kts | 176° |
| 2026-05-04 00:41 | 23.68907 | -79.00847 | 35030 ft | 450 kts | 176° |
| 2026-05-04 00:42 | 23.62739 | -78.99629 | 35028 ft | 451 kts | 176° |
| 2026-05-04 00:42 | 23.56561 | -78.98409 | 35029 ft | 451 kts | 176° |
| 2026-05-04 00:43 | 23.50366 | -78.97187 | 35030 ft | 452 kts | 176° |
| 2026-05-04 00:43 | 23.44172 | -78.95968 | 35030 ft | 453 kts | 176° |
| 2026-05-04 00:44 | 23.38006 | -78.94756 | 35027 ft | 454 kts | 176° |
| 2026-05-04 00:44 | 23.31777 | -78.93531 | 35029 ft | 455 kts | 176° |
| 2026-05-04 00:45 | 23.25542 | -78.92301 | 35029 ft | 457 kts | 174° |
| 2026-05-04 00:45 | 23.22484 | -78.91216 | 34900 ft | 471 kts | 159° |
| 2026-05-04 00:45 | 23.19764 | -78.89231 | 34729 ft | 484 kts | 142° |
| 2026-05-04 00:45 | 23.17563 | -78.86433 | 34560 ft | 494 kts | 126° |
| 2026-05-04 00:46 | 23.16098 | -78.83047 | 34392 ft | 502 kts | 109° |
| 2026-05-04 00:46 | 23.15489 | -78.79298 | 34229 ft | 507 kts | 92° |
| 2026-05-04 00:46 | 23.15797 | -78.75476 | 34055 ft | 509 kts | 76° |
| 2026-05-04 00:46 | 23.16996 | -78.71885 | 33890 ft | 507 kts | 60° |
| 2026-05-04 00:47 | 23.19003 | -78.68761 | 33712 ft | 502 kts | 43° |
| 2026-05-04 00:47 | 23.21655 | -78.66351 | 33588 ft | 495 kts | 27° |
| 2026-05-04 00:47 | 23.24756 | -78.64796 | 33657 ft | 488 kts | 11° |
| 2026-05-04 00:47 | 23.28066 | -78.64140 | 33646 ft | 481 kts | 356° |
| 2026-05-04 00:48 | 23.31304 | -78.64410 | 33664 ft | 469 kts | 341° |
| 2026-05-04 00:48 | 23.34352 | -78.65509 | 33448 ft | 455 kts | 327° |
| 2026-05-04 00:48 | 23.36942 | -78.67315 | 33200 ft | 439 kts | 314° |
| 2026-05-04 00:48 | 23.39052 | -78.69675 | 33083 ft | 432 kts | 303° |
| 2026-05-04 00:49 | 23.40723 | -78.72368 | 33036 ft | 428 kts | 293° |
| 2026-05-04 00:49 | 23.42582 | -78.78366 | 33023 ft | 414 kts | 281° |
| 2026-05-04 00:50 | 23.43994 | -78.84424 | 33027 ft | 414 kts | 281° |
| 2026-05-04 00:50 | 23.45403 | -78.90470 | 33031 ft | 415 kts | 281° |
| 2026-05-04 00:51 | 23.46857 | -78.96564 | 33023 ft | 416 kts | 281° |
| 2026-05-04 00:51 | 23.48333 | -79.02669 | 33030 ft | 417 kts | 281° |
| 2026-05-04 00:52 | 23.49803 | -79.08745 | 33029 ft | 417 kts | 281° |
| 2026-05-04 00:52 | 23.51280 | -79.14848 | 33026 ft | 417 kts | 281° |
| 2026-05-04 00:53 | 23.52753 | -79.20961 | 33028 ft | 416 kts | 281° |
| 2026-05-04 00:53 | 23.54219 | -79.27056 | 33026 ft | 415 kts | 281° |
| 2026-05-04 00:54 | 23.55765 | -79.33062 | 33012 ft | 418 kts | 290° |
| 2026-05-04 00:54 | 23.57340 | -79.35757 | 33047 ft | 427 kts | 305° |
| 2026-05-04 00:54 | 23.59513 | -79.37999 | 33017 ft | 438 kts | 319° |
| 2026-05-04 00:54 | 23.62231 | -79.39581 | 33035 ft | 449 kts | 333° |
| 2026-05-04 00:55 | 23.65280 | -79.40438 | 33030 ft | 459 kts | 346° |
| 2026-05-04 00:55 | 23.68504 | -79.40572 | 33023 ft | 471 kts | 1° |
| 2026-05-04 00:55 | 23.71742 | -79.39819 | 33050 ft | 478 kts | 11° |
| 2026-05-04 00:56 | 23.78112 | -79.37623 | 33029 ft | 481 kts | 13° |
| 2026-05-04 00:56 | 23.84439 | -79.35341 | 33027 ft | 482 kts | 13° |
| 2026-05-04 00:57 | 23.90843 | -79.33101 | 33023 ft | 484 kts | 12° |
| 2026-05-04 00:57 | 23.97282 | -79.30898 | 32770 ft | 487 kts | 12° |
| 2026-05-04 00:57 | 24.00507 | -79.29800 | 32521 ft | 485 kts | 12° |
| 2026-05-04 00:58 | 24.03734 | -79.28701 | 32271 ft | 487 kts | 12° |
| 2026-05-04 00:58 | 24.06978 | -79.27596 | 32082 ft | 489 kts | 12° |
| 2026-05-04 00:58 | 24.10223 | -79.26488 | 32036 ft | 489 kts | 12° |
| 2026-05-04 00:59 | 24.16689 | -79.24277 | 32027 ft | 490 kts | 12° |
| 2026-05-04 00:59 | 24.23200 | -79.22046 | 32025 ft | 490 kts | 12° |
| 2026-05-04 01:00 | 24.29711 | -79.19812 | 32027 ft | 490 kts | 12° |
| 2026-05-04 01:00 | 24.36181 | -79.17592 | 32030 ft | 490 kts | 12° |
| 2026-05-04 01:01 | 24.42686 | -79.15356 | 32026 ft | 490 kts | 12° |
| 2026-05-04 01:01 | 24.49189 | -79.13119 | 32025 ft | 490 kts | 12° |
| 2026-05-04 01:02 | 24.55693 | -79.10879 | 32030 ft | 490 kts | 12° |
| 2026-05-04 01:02 | 24.62206 | -79.08633 | 31916 ft | 491 kts | 12° |
| 2026-05-04 01:02 | 24.65454 | -79.07512 | 31470 ft | 489 kts | 12° |
| 2026-05-04 01:03 | 24.68643 | -79.06409 | 31012 ft | 484 kts | 12° |
| 2026-05-04 01:03 | 24.71837 | -79.05305 | 30550 ft | 479 kts | 12° |
| 2026-05-04 01:03 | 24.75043 | -79.04495 | 30052 ft | 465 kts | 356° |
| 2026-05-04 01:03 | 24.78172 | -79.04759 | 29632 ft | 443 kts | 339° |
| 2026-05-04 01:04 | 24.81030 | -79.05831 | 29035 ft | 430 kts | 327° |
| 2026-05-04 01:04 | 24.83557 | -79.07487 | 28512 ft | 415 kts | 314° |
| 2026-05-04 01:04 | 24.85626 | -79.09618 | 28031 ft | 402 kts | 306° |
| 2026-05-04 01:04 | 24.87505 | -79.11872 | 27551 ft | 398 kts | 305° |
| 2026-05-04 01:05 | 24.89357 | -79.14119 | 27076 ft | 395 kts | 306° |
| 2026-05-04 01:05 | 24.91193 | -79.16303 | 26617 ft | 392 kts | 307° |
| 2026-05-04 01:05 | 24.93057 | -79.18490 | 26153 ft | 389 kts | 307° |
| 2026-05-04 01:05 | 24.94901 | -79.20641 | 25685 ft | 386 kts | 307° |
| 2026-05-04 01:06 | 24.96736 | -79.22783 | 25226 ft | 382 kts | 307° |
| 2026-05-04 01:06 | 24.98558 | -79.24909 | 24776 ft | 380 kts | 307° |
| 2026-05-04 01:06 | 25.00363 | -79.27019 | 24315 ft | 377 kts | 307° |
| 2026-05-04 01:06 | 25.02149 | -79.29108 | 23865 ft | 374 kts | 308° |
| 2026-05-04 01:07 | 25.03904 | -79.31161 | 23423 ft | 371 kts | 308° |
| 2026-05-04 01:07 | 25.05663 | -79.33220 | 22984 ft | 368 kts | 308° |
| 2026-05-04 01:07 | 25.07415 | -79.35274 | 22540 ft | 365 kts | 308° |
| 2026-05-04 01:07 | 25.09143 | -79.37301 | 22109 ft | 363 kts | 308° |
| 2026-05-04 01:08 | 25.10863 | -79.39319 | 21681 ft | 360 kts | 308° |
| 2026-05-04 01:08 | 25.12575 | -79.41330 | 21252 ft | 358 kts | 308° |
| 2026-05-04 01:08 | 25.14270 | -79.43320 | 20826 ft | 355 kts | 308° |
| 2026-05-04 01:08 | 25.15959 | -79.45304 | 20402 ft | 353 kts | 308° |
| 2026-05-04 01:09 | 25.17629 | -79.47267 | 19979 ft | 350 kts | 308° |
| 2026-05-04 01:09 | 25.19293 | -79.49223 | 19562 ft | 348 kts | 308° |
| 2026-05-04 01:09 | 25.20943 | -79.51164 | 19147 ft | 345 kts | 308° |
| 2026-05-04 01:09 | 25.22558 | -79.53065 | 18739 ft | 343 kts | 308° |
| 2026-05-04 01:10 | 25.24187 | -79.54983 | 18327 ft | 341 kts | 308° |
| 2026-05-04 01:10 | 25.25805 | -79.56888 | 17913 ft | 339 kts | 308° |
| 2026-05-04 01:10 | 25.27411 | -79.58780 | 17513 ft | 337 kts | 308° |
| 2026-05-04 01:10 | 25.29011 | -79.60666 | 17103 ft | 335 kts | 308° |
| 2026-05-04 01:11 | 25.30600 | -79.62542 | 16687 ft | 333 kts | 308° |
| 2026-05-04 01:11 | 25.32179 | -79.64405 | 16279 ft | 332 kts | 308° |
| 2026-05-04 01:11 | 25.33733 | -79.66240 | 15875 ft | 330 kts | 308° |
| 2026-05-04 01:11 | 25.35288 | -79.68077 | 15480 ft | 328 kts | 308° |
| 2026-05-04 01:12 | 25.36842 | -79.69912 | 15086 ft | 326 kts | 309° |
| 2026-05-04 01:12 | 25.38383 | -79.71733 | 14688 ft | 324 kts | 309° |
| 2026-05-04 01:12 | 25.39856 | -79.73610 | 14177 ft | 323 kts | 303° |
| 2026-05-04 01:12 | 25.41188 | -79.75598 | 13771 ft | 320 kts | 301° |
| 2026-05-04 01:13 | 25.42474 | -79.77598 | 13369 ft | 318 kts | 301° |
| 2026-05-04 01:13 | 25.43751 | -79.79591 | 12974 ft | 316 kts | 301° |
| 2026-05-04 01:13 | 25.45028 | -79.81570 | 12582 ft | 314 kts | 301° |
| 2026-05-04 01:13 | 25.46300 | -79.83527 | 12201 ft | 312 kts | 301° |
| 2026-05-04 01:14 | 25.47567 | -79.85466 | 11818 ft | 310 kts | 302° |
| 2026-05-04 01:14 | 25.48814 | -79.87367 | 11444 ft | 308 kts | 302° |
| 2026-05-04 01:14 | 25.50074 | -79.89285 | 11069 ft | 307 kts | 302° |
| 2026-05-04 01:14 | 25.51323 | -79.91183 | 10686 ft | 305 kts | 303° |
| 2026-05-04 01:15 | 25.52562 | -79.93063 | 10498 ft | 298 kts | 303° |
| 2026-05-04 01:15 | 25.53759 | -79.94887 | 10352 ft | 288 kts | 303° |
| 2026-05-04 01:15 | 25.54927 | -79.96655 | 10220 ft | 280 kts | 303° |
| 2026-05-04 01:15 | 25.56057 | -79.98379 | 10106 ft | 272 kts | 303° |
| 2026-05-04 01:16 | 25.57166 | -80.00045 | 9961 ft | 267 kts | 303° |
| 2026-05-04 01:16 | 25.58263 | -80.01720 | 9677 ft | 268 kts | 303° |
| 2026-05-04 01:16 | 25.59335 | -80.03355 | 9403 ft | 266 kts | 303° |
| 2026-05-04 01:16 | 25.60415 | -80.05007 | 9125 ft | 264 kts | 303° |
| 2026-05-04 01:17 | 25.61506 | -80.06653 | 8846 ft | 265 kts | 304° |
| 2026-05-04 01:17 | 25.62584 | -80.08295 | 8548 ft | 265 kts | 303° |
| 2026-05-04 01:17 | 25.63657 | -80.09935 | 8274 ft | 264 kts | 304° |
| 2026-05-04 01:17 | 25.64733 | -80.11577 | 7989 ft | 262 kts | 304° |
| 2026-05-04 01:18 | 25.65805 | -80.13211 | 7704 ft | 262 kts | 304° |
| 2026-05-04 01:18 | 25.66873 | -80.14842 | 7381 ft | 263 kts | 304° |
| 2026-05-04 01:18 | 25.67945 | -80.16477 | 7074 ft | 262 kts | 304° |
| 2026-05-04 01:18 | 25.69003 | -80.18092 | 6787 ft | 262 kts | 304° |
| 2026-05-04 01:19 | 25.70072 | -80.19722 | 6506 ft | 260 kts | 304° |
| 2026-05-04 01:19 | 25.71076 | -80.21379 | 6210 ft | 258 kts | 293° |
| 2026-05-04 01:19 | 25.71424 | -80.23292 | 5941 ft | 254 kts | 268° |
| 2026-05-04 01:19 | 25.71285 | -80.25230 | 5719 ft | 250 kts | 263° |
| 2026-05-04 01:20 | 25.71089 | -80.27131 | 5551 ft | 245 kts | 263° |
| 2026-05-04 01:20 | 25.70891 | -80.28982 | 5390 ft | 240 kts | 263° |
| 2026-05-04 01:20 | 25.70690 | -80.30813 | 5283 ft | 240 kts | 263° |
| 2026-05-04 01:20 | 25.70487 | -80.32651 | 5209 ft | 242 kts | 263° |
| 2026-05-04 01:21 | 25.70277 | -80.34524 | 5181 ft | 254 kts | 263° |
| 2026-05-04 01:21 | 25.70128 | -80.35845 | 5161 ft | 258 kts | 263° |
| 2026-05-04 01:21 | 25.69834 | -80.38492 | 4875 ft | 265 kts | 263° |
| 2026-05-04 01:21 | 25.69607 | -80.40517 | 4618 ft | 263 kts | 263° |
| 2026-05-04 01:22 | 25.69366 | -80.42511 | 4364 ft | 260 kts | 262° |
| 2026-05-04 01:22 | 25.69129 | -80.44497 | 4053 ft | 260 kts | 263° |
| 2026-05-04 01:22 | 25.69046 | -80.45832 | 3862 ft | 259 kts | 275° |
| 2026-05-04 01:22 | 25.69692 | -80.47623 | 3669 ft | 251 kts | 313° |
| 2026-05-04 01:23 | 25.71138 | -80.48573 | 3598 ft | 240 kts | 346° |
| 2026-05-04 01:23 | 25.72757 | -80.48812 | 3506 ft | 232 kts | 359° |
| 2026-05-04 01:23 | 25.74321 | -80.48543 | 3395 ft | 224 kts | 14° |
| 2026-05-04 01:23 | 25.76347 | -80.47984 | 3120 ft | 229 kts | 13° |
| 2026-05-04 01:24 | 25.77905 | -80.47562 | 2944 ft | 232 kts | 20° |
| 2026-05-04 01:24 | 25.79200 | -80.46528 | 2814 ft | 234 kts | 56° |
| 2026-05-04 01:24 | 25.79619 | -80.45404 | 2665 ft | 234 kts | 79° |
| 2026-05-04 01:24 | 25.79730 | -80.43635 | 2371 ft | 233 kts | 85° |
| 2026-05-04 01:25 | 25.79814 | -80.41848 | 2071 ft | 230 kts | 86° |
| 2026-05-04 01:25 | 25.79883 | -80.40125 | 1750 ft | 216 kts | 86° |
| 2026-05-04 01:25 | 25.79946 | -80.38536 | 1469 ft | 199 kts | 86° |
| 2026-05-04 01:25 | 25.79949 | -80.37056 | 1177 ft | 187 kts | 90° |
| 2026-05-04 01:26 | 25.79910 | -80.35630 | 874 ft | 180 kts | 90° |
| 2026-05-04 01:26 | 25.79916 | -80.34287 | 640 ft | 169 kts | 87° |
| 2026-05-04 01:26 | 25.79954 | -80.33068 | 522 ft | 150 kts | 87° |
| 2026-05-04 01:26 | 25.79994 | -80.31943 | 384 ft | 148 kts | 86° |
| 2026-05-04 01:27 | 25.80045 | -80.30805 | 161 ft | 146 kts | 86° |
| 2026-05-04 01:27 | 25.80086 | -80.29701 | 27 ft | 140 kts | 85° |
| 2026-05-04 01:27 | 25.80133 | -80.28626 | 18 ft | 130 kts | 88° |
| 2026-05-04 01:27 | 25.80168 | -80.27854 | 13 ft | 82 kts | 86° |
| 2026-05-04 01:28 | 25.80179 | -80.27432 | 20 ft | 32 kts | 88° |
| 2026-05-04 01:28 | 25.80186 | -80.27233 | 18 ft | 25 kts | 88° |
| 2026-05-04 01:28 | 25.80190 | -80.27100 | 20 ft | 15 kts | 88° |
| 2026-05-04 01:28 | 25.80152 | -80.27000 | 20 ft | 15 kts | 158° |
| 2026-05-04 01:29 | 25.80068 | -80.27046 | 20 ft | 14 kts | 222° |
| 2026-05-04 01:29 | 25.80005 | -80.27128 | 23 ft | 14 kts | 245° |
| 2026-05-04 01:29 | 25.79998 | -80.27229 | 22 ft | 13 kts | 269° |
| 2026-05-04 01:29 | 25.79995 | -80.27316 | 21 ft | 8 kts | 264° |
| 2026-05-04 01:30 | 25.79953 | -80.27335 | 20 ft | 6 kts | 168° |
| 2026-05-04 01:30 | 25.79924 | -80.27321 | 20 ft | 5 kts | 168° |
| 2026-05-04 01:30 | 25.79909 | -80.27317 | 20 ft | 0 kts | 166° |